Atlantic, North Carolina
Current Conditions -  °F | °C
As of 12:56 AM on Saturday 29 Nov 2014 (Local Time) from KNBT Reporting Station
Clear Clear  
Wind Chill: 32°   Ceiling: Unl
Heat Index: 37°   Visibility: NA
Dew Point: 29°   Wind: 6mph
Humidity: 73%   Direction: 230°SW
Pressure: 30.31"   Gusts: NA
Location:  34.89°N, 76.34°W
Report Text: KNBT 290556Z AUTO 23005KT CLR 03/M02 A3031 RMK AO2 SLP269 6//// T00281017 10067 20022 55008 PNO $
Loading
Personal Weather Stations






























Interactive Weather Map New forecast layout! Learn more

10-Day Weather Forecast

Advertisements
Track Severe Weather on mobile